Terminal Aerodrome Forecast
Issued by NWS Pendleton, OR

Home | Current Version | Previous Version | Text Only | Print | Product List | Glossary On
Versions: 1 2 3 4 5 6 7 8 9 10 11 12 13 14 15 16 17
000
FTUS46 KPDT 030500
TAFPDT
TAF
KPDT 030520Z 0306/0406 32012KT P6SM SCT070 BKN100
     FM030900 33010KT P6SM FEW100
     FM031200 28006KT P6SM SKC
     FM031900 32008KT P6SM SKC
     FM040200 13005KT P6SM SKC=

USA.gov is the U.S. government's official web portal to all federal, state and local government web resources and services.